createdAt,value
2019-05-03T00:02:24.736Z,10.40
2019-05-03T00:04:59.276Z,10.40
2019-05-03T00:07:27.938Z,10.30
2019-05-03T00:09:56.637Z,10.30
2019-05-03T00:12:25.654Z,10.30
2019-05-03T00:14:58.070Z,10.30
2019-05-03T00:17:26.775Z,10.30
2019-05-03T00:19:55.787Z,10.30
2019-05-03T00:22:24.601Z,10.30
2019-05-03T00:25:04.910Z,10.30
2019-05-03T00:27:23.701Z,10.30
2019-05-03T00:29:52.490Z,10.20
2019-05-03T00:32:22.953Z,10.20
2019-05-03T00:34:53.287Z,10.20
2019-05-03T00:37:23.846Z,10.10
2019-05-03T00:40:04.433Z,10.10
2019-05-03T00:42:33.291Z,10.00
2019-05-03T00:45:02.381Z,10.00
2019-05-03T00:47:32.822Z,10.00
2019-05-03T00:50:02.798Z,9.90
2019-05-03T00:52:31.913Z,9.90
2019-05-03T00:55:02.183Z,9.90
2019-05-03T00:57:34.102Z,9.90
2019-05-03T01:00:02.884Z,9.80
2019-05-03T01:02:32.046Z,9.70
2019-05-03T01:05:07.537Z,9.70
2019-05-03T01:07:36.299Z,9.80
2019-05-03T01:10:06.071Z,9.70
2019-05-03T01:12:34.811Z,9.70
2019-05-03T01:15:05.526Z,9.70
2019-05-03T01:17:36.174Z,9.70
2019-05-03T01:20:05.490Z,9.70
2019-05-03T01:22:34.166Z,9.60
2019-05-03T01:25:03.382Z,9.60
2019-05-03T01:27:32.590Z,9.50
2019-05-03T01:30:02.881Z,9.40
2019-05-03T01:32:32.942Z,9.40
2019-05-03T01:35:03.224Z,9.40
2019-05-03T01:37:32.376Z,9.40
2019-05-03T01:40:02.378Z,9.50
2019-05-03T01:42:32.134Z,9.40
2019-05-03T01:45:01.812Z,9.40
2019-05-03T01:47:38.950Z,9.50
2019-05-03T01:50:15.942Z,9.50
2019-05-03T01:52:44.816Z,9.50
2019-05-03T01:55:15.827Z,9.40
2019-05-03T01:57:44.012Z,9.40
2019-05-03T02:00:15.890Z,9.40
2019-05-03T02:02:52.465Z,9.30
2019-05-03T02:05:42.662Z,9.30
2019-05-03T02:08:12.955Z,9.30
2019-05-03T02:10:43.606Z,9.40
2019-05-03T02:13:13.038Z,9.30
2019-05-03T02:15:42.295Z,9.30
2019-05-03T02:18:14.928Z,9.30
2019-05-03T02:20:41.955Z,9.30
2019-05-03T02:23:11.868Z,9.30
2019-05-03T02:25:41.944Z,9.20
2019-05-03T02:28:12.621Z,9.30
2019-05-03T02:30:44.072Z,9.30
2019-05-03T02:33:13.514Z,9.30
2019-05-03T02:35:43.133Z,9.30
2019-05-03T02:38:13.228Z,9.30
2019-05-03T02:40:42.971Z,9.30
2019-05-03T02:43:18.062Z,9.30
2019-05-03T02:45:56.751Z,9.30
2019-05-03T02:48:32.395Z,9.30
2019-05-03T02:51:01.129Z,9.40
2019-05-03T02:53:29.895Z,9.40
2019-05-03T02:56:13.829Z,9.30
2019-05-03T02:58:29.624Z,9.30
2019-05-03T03:00:59.892Z,9.30
2019-05-03T03:03:29.514Z,9.30
2019-05-03T03:05:59.271Z,9.30
2019-05-03T03:08:32.984Z,9.30
2019-05-03T03:11:02.451Z,9.20
2019-05-03T03:13:33.032Z,9.10
2019-05-03T03:16:06.745Z,9.10
2019-05-03T03:18:37.900Z,9.00
2019-05-03T03:21:16.174Z,8.90
2019-05-03T03:23:49.699Z,8.80
2019-05-03T03:26:34.466Z,8.80
2019-05-03T03:28:56.302Z,8.80
2019-05-03T03:31:40.202Z,8.70
2019-05-03T03:34:10.691Z,8.70
2019-05-03T03:36:59.435Z,8.60
2019-05-03T03:39:20.453Z,8.40
2019-05-03T03:41:49.559Z,8.40
2019-05-03T03:44:20.013Z,8.40
2019-05-03T03:46:50.069Z,8.40
2019-05-03T03:49:19.889Z,8.30
2019-05-03T03:51:51.520Z,8.30
2019-05-03T03:54:21.215Z,8.20
2019-05-03T03:57:02.689Z,8.10
2019-05-03T03:59:26.759Z,8.10
2019-05-03T04:01:55.266Z,8.00
2019-05-03T04:04:26.121Z,8.00
2019-05-03T04:06:58.542Z,7.90
2019-05-03T04:09:26.065Z,7.90
2019-05-03T04:11:56.829Z,7.90
2019-05-03T04:14:36.159Z,8.00
2019-05-03T04:17:18.895Z,8.00
2019-05-03T04:19:49.008Z,8.10
2019-05-03T04:22:18.043Z,8.20
2019-05-03T04:24:47.085Z,8.20
2019-05-03T04:27:22.844Z,8.30
2019-05-03T04:29:46.880Z,8.70
2019-05-03T04:32:15.954Z,9.10
2019-05-03T04:34:45.462Z,9.40
2019-05-03T04:37:16.119Z,9.60
2019-05-03T04:39:45.795Z,9.90
2019-05-03T04:42:16.489Z,10.00
2019-05-03T04:44:45.902Z,9.90
2019-05-03T04:47:15.745Z,9.80
2019-05-03T04:49:46.323Z,10.00
2019-05-03T04:52:16.433Z,11.10
2019-05-03T04:54:56.246Z,12.30
2019-05-03T04:57:39.277Z,13.00
2019-05-03T04:59:55.989Z,13.10
2019-05-03T05:02:26.432Z,12.70
2019-05-03T05:04:55.867Z,12.00
2019-05-03T05:07:25.998Z,11.50
2019-05-03T05:09:56.315Z,11.00
2019-05-03T05:12:25.603Z,10.80
2019-05-03T05:14:56.394Z,10.50
2019-05-03T05:17:35.699Z,10.20
2019-05-03T05:20:14.501Z,10.10
2019-05-03T05:22:45.282Z,9.90
2019-05-03T05:25:17.187Z,9.90
2019-05-03T05:28:20.342Z,10.00
2019-05-03T05:30:49.450Z,11.10
2019-05-03T05:33:21.198Z,13.50
2019-05-03T05:35:51.215Z,15.20
2019-05-03T05:38:20.047Z,16.40
2019-05-03T05:40:49.015Z,17.40
2019-05-03T05:43:17.769Z,18.20
2019-05-03T05:45:46.471Z,18.40
2019-05-03T05:48:19.352Z,17.90
2019-05-03T05:50:48.280Z,17.70
2019-05-03T05:53:17.182Z,18.60
2019-05-03T05:55:55.052Z,19.60
2019-05-03T05:58:46.614Z,19.30
2019-05-03T06:01:24.878Z,18.50
2019-05-03T06:03:55.028Z,18.30
2019-05-03T06:06:36.851Z,19.00
2019-05-03T06:09:12.322Z,19.80
2019-05-03T06:11:55.398Z,20.10
2019-05-03T06:14:27.862Z,20.80
2019-05-03T06:17:05.442Z,21.90
2019-05-03T06:19:41.081Z,21.60
2019-05-03T06:22:44.809Z,21.10
2019-05-03T06:25:38.702Z,21.60
2019-05-03T06:28:19.983Z,21.00
2019-05-03T06:31:14.964Z,20.20
2019-05-03T06:33:45.059Z,20.70
2019-05-03T06:36:15.241Z,21.50
2019-05-03T06:38:44.742Z,21.00
2019-05-03T06:41:15.012Z,20.90
2019-05-03T06:43:45.000Z,21.80
2019-05-03T06:46:16.442Z,22.30
2019-05-03T06:48:44.836Z,21.50
2019-05-03T06:51:19.196Z,20.50
2019-05-03T06:53:47.638Z,19.20
2019-05-03T06:56:14.835Z,17.90
2019-05-03T06:58:44.856Z,18.10
2019-05-03T07:01:21.561Z,18.50
2019-05-03T07:04:00.858Z,19.10
2019-05-03T07:06:40.336Z,20.30
2019-05-03T07:09:25.306Z,19.80
2019-05-03T07:11:55.529Z,20.40
2019-05-03T07:14:24.746Z,20.80
2019-05-03T07:16:55.321Z,20.80
2019-05-03T07:19:25.026Z,21.30
2019-05-03T07:21:54.640Z,21.70
2019-05-03T07:24:24.905Z,22.10
2019-05-03T07:26:55.131Z,23.10
2019-05-03T07:29:25.521Z,23.90
2019-05-03T07:31:55.006Z,23.60
2019-05-03T07:34:24.801Z,23.10
2019-05-03T07:36:55.517Z,21.90
2019-05-03T07:39:24.644Z,20.70
2019-05-03T07:41:55.163Z,19.40
2019-05-03T07:44:25.482Z,19.00
2019-05-03T07:46:55.511Z,19.60
2019-05-03T07:49:24.958Z,20.30
2019-05-03T07:51:55.315Z,21.50
2019-05-03T07:54:24.815Z,22.90
2019-05-03T07:56:58.586Z,23.70
2019-05-03T07:59:27.270Z,22.50
2019-05-03T08:01:57.874Z,20.20
2019-05-03T08:04:26.679Z,19.60
2019-05-03T08:06:55.534Z,19.70
2019-05-03T08:09:24.694Z,21.20
2019-05-03T08:11:54.736Z,21.50
2019-05-03T08:14:25.271Z,21.20
2019-05-03T08:16:54.885Z,19.60
2019-05-03T08:19:26.899Z,18.50
2019-05-03T08:21:56.589Z,17.90
2019-05-03T08:24:25.372Z,19.40
2019-05-03T08:26:55.782Z,21.20
2019-05-03T08:29:25.016Z,21.30
2019-05-03T08:32:06.742Z,20.50
2019-05-03T08:34:55.563Z,20.80
2019-05-03T08:37:28.080Z,21.10
2019-05-03T08:39:57.178Z,20.30
2019-05-03T08:42:26.357Z,20.80
2019-05-03T08:44:56.617Z,21.90
2019-05-03T08:47:25.694Z,24.20
2019-05-03T08:49:55.426Z,24.80
2019-05-03T08:52:24.861Z,25.60
2019-05-03T08:54:55.056Z,25.60
2019-05-03T08:57:25.308Z,25.50
2019-05-03T08:59:54.958Z,25.00
2019-05-03T09:02:25.821Z,25.30
2019-05-03T09:04:54.814Z,25.20
2019-05-03T09:07:25.515Z,24.40
2019-05-03T09:10:12.575Z,25.00
2019-05-03T09:12:58.603Z,25.40
2019-05-03T09:15:27.594Z,25.40
2019-05-03T09:17:56.611Z,25.40
2019-05-03T09:20:25.306Z,26.60
2019-05-03T09:22:54.955Z,26.50
2019-05-03T09:25:24.743Z,25.00
2019-05-03T09:27:55.228Z,25.50
2019-05-03T09:30:25.107Z,25.10
2019-05-03T09:32:55.695Z,22.20
2019-05-03T09:35:32.061Z,20.60
2019-05-03T09:37:55.688Z,19.50
2019-05-03T09:40:24.685Z,20.10
2019-05-03T09:42:55.096Z,20.90
2019-05-03T09:45:24.569Z,20.80
2019-05-03T09:47:55.189Z,20.70
2019-05-03T09:50:27.413Z,21.60
2019-05-03T09:52:56.231Z,22.80
2019-05-03T09:55:35.333Z,23.70
2019-05-03T09:58:05.486Z,22.90
2019-05-03T10:00:36.291Z,22.00
2019-05-03T10:03:05.580Z,20.60
2019-05-03T10:05:35.119Z,19.30
2019-05-03T10:08:05.068Z,18.70
2019-05-03T10:10:53.401Z,18.90
2019-05-03T10:13:23.891Z,18.80
2019-05-03T10:15:55.361Z,18.40
2019-05-03T10:18:25.447Z,18.30
2019-05-03T10:20:56.088Z,17.90
2019-05-03T10:23:40.477Z,17.70
2019-05-03T10:26:09.902Z,17.50
2019-05-03T10:28:38.988Z,17.40
2019-05-03T10:31:08.186Z,17.20
2019-05-03T10:33:59.207Z,17.10
2019-05-03T10:36:27.986Z,16.80
2019-05-03T10:38:56.899Z,17.10
2019-05-03T10:41:25.745Z,17.10
2019-05-03T10:43:55.647Z,16.60
2019-05-03T10:46:25.036Z,16.60
2019-05-03T10:48:55.778Z,16.60
2019-05-03T10:51:27.141Z,16.50
2019-05-03T10:53:58.998Z,16.50
2019-05-03T10:56:45.238Z,16.10
2019-05-03T10:59:14.250Z,16.00
2019-05-03T11:02:02.971Z,16.10
2019-05-03T11:04:31.625Z,15.90
2019-05-03T11:07:00.311Z,15.80
2019-05-03T11:09:29.045Z,15.70
2019-05-03T11:12:00.275Z,15.90
2019-05-03T11:14:28.951Z,15.50
2019-05-03T11:17:00.475Z,15.30
2019-05-03T11:19:28.657Z,15.00
2019-05-03T11:21:57.499Z,14.90
2019-05-03T11:24:27.546Z,14.80
2019-05-03T11:27:00.161Z,15.00
2019-05-03T11:29:29.273Z,15.20
2019-05-03T11:32:14.928Z,15.20
2019-05-03T11:34:49.895Z,15.40
2019-05-03T11:37:49.683Z,15.70
2019-05-03T11:40:18.503Z,16.00
2019-05-03T11:42:47.691Z,16.20
2019-05-03T11:45:17.696Z,16.10
2019-05-03T11:47:46.393Z,15.90
2019-05-03T11:50:15.224Z,15.80
2019-05-03T11:52:47.125Z,15.40
2019-05-03T11:55:16.106Z,15.30
2019-05-03T11:57:45.098Z,15.60
2019-05-03T12:00:16.162Z,15.90
2019-05-03T12:02:56.142Z,15.90
2019-05-03T12:05:26.633Z,16.20
2019-05-03T12:07:55.338Z,16.10
2019-05-03T12:10:36.538Z,16.00
2019-05-03T12:12:59.949Z,16.00
2019-05-03T12:15:28.694Z,16.00
2019-05-03T12:31:49.959Z,16.00
2019-05-03T12:34:19.248Z,15.70
2019-05-03T12:36:51.053Z,15.60
2019-05-03T12:39:26.822Z,15.30
2019-05-03T12:41:49.230Z,15.10
2019-05-03T12:44:17.998Z,15.20
2019-05-03T12:46:46.847Z,15.60
2019-05-03T12:49:16.261Z,16.00
2019-05-03T12:51:45.348Z,16.30
2019-05-03T12:54:15.634Z,16.60
2019-05-03T12:56:45.383Z,16.70
2019-05-03T12:59:27.026Z,16.80
2019-05-03T13:02:24.871Z,17.00
2019-05-03T13:04:55.281Z,17.00
2019-05-03T13:07:30.339Z,16.90
2019-05-03T13:09:59.062Z,16.60
2019-05-03T13:12:29.327Z,16.40
2019-05-03T13:14:58.238Z,16.20
2019-05-03T13:17:39.194Z,15.80
2019-05-03T13:20:09.592Z,15.80
2019-05-03T13:22:38.603Z,15.50
2019-05-03T13:25:09.176Z,15.10
2019-05-03T13:27:38.310Z,15.10
2019-05-03T13:30:07.863Z,15.10
2019-05-03T13:32:36.918Z,15.20
2019-05-03T13:35:06.110Z,15.00
2019-05-03T13:37:35.845Z,14.80
2019-05-03T13:40:05.494Z,14.80
2019-05-03T13:42:35.101Z,14.70
2019-05-03T13:45:04.869Z,14.70
2019-05-03T13:47:35.073Z,14.80
2019-05-03T13:50:04.642Z,15.00
2019-05-03T13:52:34.607Z,15.10
2019-05-03T13:55:05.412Z,15.10
2019-05-03T13:57:35.479Z,15.20
2019-05-03T14:00:05.926Z,15.20
2019-05-03T14:02:35.766Z,15.30
2019-05-03T14:05:05.197Z,15.20
2019-05-03T14:07:35.334Z,15.30
2019-05-03T14:10:05.697Z,15.50
2019-05-03T14:12:35.071Z,15.60
2019-05-03T14:15:05.665Z,15.50
2019-05-03T14:17:34.519Z,15.50
2019-05-03T14:20:11.618Z,15.70
2019-05-03T14:22:43.025Z,15.70
2019-05-03T14:25:11.883Z,15.40
2019-05-03T14:27:41.068Z,15.20
2019-05-03T14:30:10.271Z,15.00
2019-05-03T14:32:39.619Z,14.90
2019-05-03T14:35:08.628Z,15.00
2019-05-03T14:37:37.983Z,14.90
2019-05-03T14:40:08.423Z,14.60
2019-05-03T14:42:37.378Z,14.30
2019-05-03T14:45:06.576Z,14.20
2019-05-03T14:47:35.270Z,14.10
2019-05-03T14:50:05.508Z,14.00
2019-05-03T14:52:34.973Z,13.90
2019-05-03T14:55:14.676Z,13.80
2019-05-03T14:57:49.386Z,13.70
2019-05-03T15:00:34.566Z,13.70
2019-05-03T15:03:12.298Z,13.70
2019-05-03T15:05:41.296Z,13.80
2019-05-03T15:08:10.198Z,13.80
2019-05-03T15:10:39.639Z,13.80
2019-05-03T15:13:08.309Z,13.90
2019-05-03T15:15:37.006Z,13.80
2019-05-03T15:18:06.013Z,13.70
2019-05-03T15:20:34.922Z,13.80
2019-05-03T15:23:05.582Z,13.70
2019-05-03T15:25:34.640Z,13.60
2019-05-03T15:28:04.984Z,13.40
2019-05-03T15:30:35.273Z,13.40
2019-05-03T15:33:05.083Z,13.30
2019-05-03T15:35:35.144Z,13.10
2019-05-03T15:38:05.367Z,13.10
2019-05-03T15:40:34.341Z,13.10
2019-05-03T15:43:14.903Z,13.10
2019-05-03T15:45:54.540Z,13.00
2019-05-03T15:48:25.997Z,13.00
2019-05-03T15:50:55.416Z,12.90
2019-05-03T15:53:24.836Z,13.00
2019-05-03T15:55:55.002Z,13.00
2019-05-03T15:58:24.830Z,12.80
2019-05-03T16:00:55.402Z,12.70
2019-05-03T16:03:25.206Z,12.80
2019-05-03T16:05:55.697Z,12.90
2019-05-03T16:08:24.908Z,13.10
2019-05-03T16:10:54.894Z,13.10
2019-05-03T16:13:25.175Z,13.20
2019-05-03T16:15:55.260Z,13.10
2019-05-03T16:18:24.682Z,12.90
2019-05-03T16:20:54.563Z,12.90
2019-05-03T16:23:25.044Z,12.90
2019-05-03T16:25:54.512Z,12.70
2019-05-03T16:28:38.230Z,12.70
2019-05-03T16:31:10.062Z,12.80
2019-05-03T16:33:38.767Z,12.80
2019-05-03T16:36:07.459Z,12.90
2019-05-03T16:38:36.407Z,13.00
2019-05-03T16:41:05.253Z,13.00
2019-05-03T16:43:34.822Z,12.90
2019-05-03T16:46:05.522Z,12.70
2019-05-03T16:48:35.333Z,12.70
2019-05-03T16:51:04.446Z,12.80
2019-05-03T16:53:35.018Z,12.70
2019-05-03T16:56:06.292Z,12.70
2019-05-03T16:58:35.368Z,12.90
2019-05-03T17:01:07.263Z,13.00
2019-05-03T17:03:45.680Z,12.80
2019-05-03T17:06:23.281Z,12.60
2019-05-03T17:09:05.313Z,12.50
2019-05-03T17:11:34.705Z,12.40
2019-05-03T17:14:05.015Z,12.20
2019-05-03T17:16:34.434Z,12.10
2019-05-03T17:19:05.708Z,12.10
2019-05-03T17:21:34.942Z,12.10
2019-05-03T17:24:04.369Z,12.10
2019-05-03T17:26:35.119Z,12.00
2019-05-03T17:29:04.649Z,11.90
2019-05-03T17:31:35.203Z,11.90
2019-05-03T17:34:05.569Z,11.90
2019-05-03T17:36:34.613Z,11.80
2019-05-03T17:39:08.083Z,11.90
2019-05-03T17:41:54.657Z,12.00
2019-05-03T17:44:27.042Z,12.00
2019-05-03T17:46:56.088Z,12.00
2019-05-03T17:49:24.798Z,12.00
2019-05-03T17:52:14.275Z,11.90
2019-05-03T17:55:02.275Z,11.80
2019-05-03T17:57:55.195Z,11.70
2019-05-03T18:00:36.528Z,11.80
2019-05-03T18:03:06.016Z,11.70
2019-05-03T18:05:44.919Z,11.70
2019-05-03T18:08:51.299Z,11.70
2019-05-03T18:11:26.278Z,11.60
2019-05-03T18:13:55.209Z,11.60
2019-05-03T18:16:24.431Z,11.60
2019-05-03T18:18:54.780Z,11.50
2019-05-03T18:21:24.436Z,11.40
2019-05-03T18:23:54.557Z,11.40
2019-05-03T18:26:24.909Z,11.40
2019-05-03T18:28:55.367Z,11.40
2019-05-03T18:31:25.006Z,11.40
2019-05-03T18:33:54.716Z,11.30
2019-05-03T18:36:25.309Z,11.20
2019-05-03T18:38:55.271Z,11.20
2019-05-03T18:41:25.403Z,11.10
2019-05-03T18:44:05.212Z,11.10
2019-05-03T18:46:37.880Z,11.10
2019-05-03T18:49:09.771Z,11.10
2019-05-03T18:51:38.478Z,11.10
2019-05-03T18:54:07.401Z,11.10
2019-05-03T18:56:36.230Z,11.10
2019-05-03T18:59:05.330Z,11.00
2019-05-03T19:01:34.788Z,11.00
2019-05-03T19:04:31.375Z,11.00
2019-05-03T19:07:02.028Z,11.00
2019-05-03T19:09:43.515Z,11.00
2019-05-03T19:12:18.551Z,11.00
2019-05-03T19:14:47.329Z,11.00
2019-05-03T19:17:24.748Z,11.00
2019-05-03T19:19:55.182Z,11.00
2019-05-03T19:22:24.989Z,11.00
2019-05-03T19:24:54.146Z,11.00
2019-05-03T19:27:24.976Z,11.00
2019-05-03T19:29:55.435Z,11.00
2019-05-03T19:32:27.898Z,10.90
2019-05-03T19:34:55.040Z,10.90
2019-05-03T19:37:25.224Z,10.90
2019-05-03T19:39:55.266Z,10.90
2019-05-03T19:42:24.841Z,10.90
2019-05-03T19:44:55.263Z,10.90
2019-05-03T19:47:25.218Z,10.90
2019-05-03T19:49:54.708Z,10.90
2019-05-03T19:52:26.263Z,10.90
2019-05-03T19:54:55.558Z,10.90
2019-05-03T19:57:29.174Z,10.90
2019-05-03T19:59:57.963Z,10.90
2019-05-03T20:02:45.901Z,10.90
2019-05-03T20:05:36.939Z,10.80
2019-05-03T20:08:15.343Z,10.80
2019-05-03T20:10:46.606Z,10.70
2019-05-03T20:13:15.530Z,10.70
2019-05-03T20:15:45.140Z,10.70
2019-05-03T20:18:15.029Z,10.70
2019-05-03T20:20:44.760Z,10.70
2019-05-03T20:23:14.647Z,10.70
2019-05-03T20:25:43.458Z,10.60
2019-05-03T20:28:12.136Z,10.60
2019-05-03T20:30:40.914Z,10.60
2019-05-03T20:33:09.577Z,10.60
2019-05-03T20:35:38.334Z,10.50
2019-05-03T20:38:07.254Z,10.50
2019-05-03T20:40:35.922Z,10.50
2019-05-03T20:43:25.756Z,10.50
2019-05-03T20:46:07.348Z,10.40
2019-05-03T20:48:37.148Z,10.40
2019-05-03T20:51:05.877Z,10.30
2019-05-03T20:53:35.048Z,10.30
2019-05-03T20:56:05.232Z,10.20
2019-05-03T20:58:35.798Z,10.20
2019-05-03T21:01:05.049Z,10.20
2019-05-03T21:03:33.863Z,10.20
2019-05-03T21:06:04.857Z,10.20
2019-05-03T21:08:34.602Z,10.10
2019-05-03T21:11:05.276Z,10.10
2019-05-03T21:13:41.915Z,10.10
2019-05-03T21:16:22.279Z,10.10
2019-05-03T21:19:06.001Z,10.10
2019-05-03T21:21:46.744Z,10.10
2019-05-03T21:24:26.036Z,10.10
2019-05-03T21:26:54.848Z,10.10
2019-05-03T21:29:23.630Z,10.10
2019-05-03T21:31:52.530Z,10.00
2019-05-03T21:34:21.903Z,10.10
2019-05-03T21:36:50.793Z,10.10
2019-05-03T21:39:19.929Z,10.00
2019-05-03T21:41:48.962Z,10.10
2019-05-03T21:44:31.292Z,10.10
2019-05-03T21:47:08.576Z,10.10
2019-05-03T21:49:42.963Z,10.10
2019-05-03T21:52:11.726Z,10.10
2019-05-03T21:54:40.436Z,10.10
2019-05-03T21:57:09.325Z,10.10
2019-05-03T21:59:38.214Z,10.00
2019-05-03T22:02:07.060Z,10.00
2019-05-03T22:04:35.778Z,10.00
2019-05-03T22:07:05.239Z,10.10
2019-05-03T22:09:36.391Z,10.00
2019-05-03T22:12:05.308Z,9.90
2019-05-03T22:14:43.005Z,9.90
2019-05-03T22:17:29.803Z,9.90
2019-05-03T22:20:04.908Z,9.80
2019-05-03T22:22:49.100Z,9.80
2019-05-03T22:25:21.061Z,9.80
2019-05-03T22:27:49.722Z,9.70
2019-05-03T22:30:18.382Z,9.60
2019-05-03T22:32:47.102Z,9.60
2019-05-03T22:35:16.001Z,9.60
2019-05-03T22:37:44.712Z,9.60
2019-05-03T22:40:14.638Z,9.50
2019-05-03T22:42:44.807Z,9.50
2019-05-03T22:45:13.746Z,9.50
2019-05-03T22:47:44.476Z,9.50
2019-05-03T22:50:14.942Z,9.40
2019-05-03T22:52:45.500Z,9.40
2019-05-03T22:55:15.372Z,9.50
2019-05-03T22:57:44.310Z,9.50
2019-05-03T23:00:14.588Z,9.50
2019-05-03T23:02:45.560Z,9.50
2019-05-03T23:05:14.445Z,9.50
2019-05-03T23:07:44.269Z,9.50
2019-05-03T23:10:14.750Z,9.40
2019-05-03T23:12:45.202Z,9.30
2019-05-03T23:15:15.081Z,9.30
2019-05-03T23:17:45.156Z,9.30
2019-05-03T23:20:25.454Z,9.30
2019-05-03T23:22:54.799Z,9.20
2019-05-03T23:25:25.003Z,9.20
2019-05-03T23:27:55.128Z,9.20
2019-05-03T23:30:24.773Z,9.10
2019-05-03T23:32:54.679Z,9.10
2019-05-03T23:35:24.685Z,9.10
2019-05-03T23:37:54.329Z,9.10
2019-05-03T23:40:25.278Z,9.10
2019-05-03T23:42:54.515Z,9.10
2019-05-03T23:45:25.412Z,9.10
2019-05-03T23:47:54.754Z,9.10
2019-05-03T23:50:24.861Z,9.10
2019-05-03T23:52:54.511Z,9.10
2019-05-03T23:55:34.443Z,9.10
2019-05-03T23:58:04.792Z,9.00
